Palmyra, ME (04965)

6:06 AM EDT on August 29, 2015 (GMT -0400)
NRE Sales | | Change Station
CLOSE
Current Station
Personal Weather Station
Location: St Albans, ME
Elevation: 230 ft
Nearby Weather Stations

Elev 230 ft 44.90 °N, 69.31 °W | Updated 7 seconds ago

Partly Cloudy
Partly Cloudy
47.7 °F
Feels Like 48 °F
N
0.0
Wind Variable Wind from NW
Gusts 0.0 mph

Today
High -- | Low -- °F
--% Chance of Precip.
Yesterday
High -- | Low -- °F
Precip. -- in
5:55 AM 7:20 PM
Full, 100% visible
Pressure 30.14 in
Visibility 10.0 miles
Clouds Mostly Cloudy 25000 ft
Windchill 48 °F
Dew Point 47 °F
Humidity 99%
Rainfall 0.00 in
Snow Depth Not available.
UV 0 out of 12
Pollen 7.40 out of 12
Air Quality Not available.
Flu Activity Not available.
METAR KBGR 290953Z 00000KT 10SM BKN250 12/11 A3015 RMK AO2 SLP206 T01170111
Pressure 30.14 in
Visibility 10.0 miles
Clouds Mostly Cloudy 25000 ft
Windchill 48 °F
Dew Point 47 °F
Humidity 99%
Rainfall 0.00 in
Snow Depth Not available.
UV 0 out of 12
Pollen 7.40 out of 12
Air Quality Not available.
Flu Activity Not available.
METAR KBGR 290953Z 00000KT 10SM BKN250 12/11 A3015 RMK AO2 SLP206 T01170111

10-Day Weather Forecast

×

Almanac

Astronomy

Aug. 29, 2015 Rise Set
Actual Time
Civil Twilight
Nautical Twilight
Astronomical Twilight
Moon
Length of Visible Light
Length of Day
Tomorrow will be .
, % of the Moon is Illuminated

Today's Extremes

State Highs State Lows

Community

WunderPhotos

Upload Photos

1,850,634 photos uploaded!

WunderBlogs® & News

Nearby

Air Quality

  Air Quality AQ Index Pollutant
Not available.

Snow Depth

Station Depth Elevation

Earthquake Activity

City Distance Mag. Time & Date
Minimum magnitude displayed is 2.5.

Coastal Water Temperatures

Place Temperature

Stations

Nearby Weather Stations

Station Location Temp. Windchill Dew Point Humidity Wind Precip. Elev Updated Type